METAR Data
IDs: Format: Raw Decoded Include TAF

Data at: 1540 UTC 03 Dec 2021

RKPK 031500Z 32014KT CAVOK 05/M10 Q1022